Austin (LCRA Redbud)'s Hourly Summary for Wednesday, May 16, 2018
Hour Temp
(f)
RH
(%)
Solar Rad.
(MJ/m2)
Rainfall
(in)
Wind
(mph)
5/16/2018 12:00 AM 75 69 0 0 0.4
5/16/2018 1:00 AM 73 73 0 0 0.4
5/16/2018 2:00 AM 72 73 0 0 0.4
5/16/2018 3:00 AM 70 78 0 0 0.4
5/16/2018 4:00 AM 69 81 0 0 0.4
5/16/2018 5:00 AM 68 87 0 0 0.4
5/16/2018 6:00 AM 65 87 0 0 0.4
5/16/2018 7:00 AM 66 85 0.01 0 0.4
5/16/2018 8:00 AM 74 80 0.3 0 0.4
5/16/2018 9:00 AM 79 66 0.99 0.01 0.4
5/16/2018 10:00 AM 82 58 1.31 0 0.58
5/16/2018 11:00 AM 85 54 2.44 0 0.92
5/16/2018 12:00 PM 89 49 2.91 0 1.24
5/16/2018 1:00 PM 90 42 3.27 0 1.44
5/16/2018 2:00 PM 93 38 3.41 0 1.34
5/16/2018 3:00 PM 95 26 3.34 0 1.43
5/16/2018 4:00 PM 95 29 2.99 0 1.83
5/16/2018 5:00 PM 95 31 2.42 0 1.34
5/16/2018 6:00 PM 95 34 1.71 0 1.57
5/16/2018 7:00 PM 93 41 0.92 0 1.8
5/16/2018 8:00 PM 89 50 0.11 0 0.89
5/16/2018 9:00 PM 83 60 0 0 0.4
5/16/2018 10:00 PM 79 67 0 0 0.4
5/16/2018 11:00 PM 77 69 0 0 0.4
Data Summary 81 59 26.13 0.01 0.82